Time;durP1;ratioP1;P1;durP2;ratioP2;P2;SDS_P1;SDS_P2;PMS_P1;PMS_P2;Temp;Humidity;BMP_temperature;BMP_pressure;BME280_temperature;BME280_humidity;BME280_pressure;Samples;Min_cycle;Max_cycle;Signal;HPM_P1;HPM_P2
2022/08/04 06:38:46;;;;;;;7.45;1.92;;;;;;;26.18;43.66;96403.00;2109610;27;20568;-64
2022/08/04 06:40:01;;;;;;;3.60;1.77;;;;;;;26.30;42.70;96394.59;2105291;28;20290;-64
2022/08/04 06:41:17;;;;;;;5.05;1.60;;;;;;;26.40;43.01;96398.72;2107054;28;20198;-69
2022/08/04 06:42:22;;;;;;;5.32;2.03;;;;;;;26.41;41.55;96394.22;2099524;28;20696;-69
2022/08/04 06:43:26;;;;;;;4.72;1.83;;;;;;;26.40;41.83;96408.59;2096763;28;20207;-69
2022/08/04 06:44:31;;;;;;;4.78;2.35;;;;;;;26.42;42.31;96401.22;2100772;28;20260;-69
2022/08/04 06:45:36;;;;;;;3.58;1.83;;;;;;;26.46;41.76;96407.91;2102115;28;20378;-70
2022/08/04 06:46:42;;;;;;;4.63;1.50;;;;;;;26.56;42.10;96396.97;2095876;28;20261;-69
2022/08/04 06:47:44;;;;;;;3.65;2.05;;;;;;;26.72;41.97;96402.22;2094538;28;20235;-69
2022/08/04 06:48:48;;;;;;;3.95;1.80;;;;;;;26.94;41.27;96404.31;2097615;28;20193;-69
2022/08/04 06:49:53;;;;;;;6.07;2.42;;;;;;;27.01;41.03;96405.28;2095394;28;20719;-69
2022/08/04 06:51:16;;;;;;;6.65;1.70;;;;;;;27.03;40.64;96398.75;2095042;28;20205;-69
2022/08/04 06:52:38;;;;;;;4.45;1.95;;;;;;;27.01;39.99;96405.28;2096376;28;20220;-69
2022/08/04 06:53:40;;;;;;;2.95;1.52;;;;;;;26.99;40.17;96394.72;2096289;28;20196;-69
2022/08/04 06:54:49;;;;;;;4.57;1.55;;;;;;;26.95;40.36;96406.00;2096500;28;20200;-69
2022/08/04 06:55:52;;;;;;;4.65;1.98;;;;;;;27.11;40.31;96408.56;2098906;28;20320;-70
2022/08/04 06:56:56;;;;;;;3.67;1.77;;;;;;;27.33;40.09;96404.19;2097236;28;20192;-69
2022/08/04 07:43:58;;;;;;;3.95;1.65;;;;;;;29.65;36.20;96399.56;2089812;28;20928;-69
2022/08/04 07:44:59;;;;;;;5.05;1.50;;;;;;;29.70;35.92;96391.72;2086912;28;20204;-69
2022/08/04 07:46:02;;;;;;;3.60;1.60;;;;;;;30.12;35.67;96406.09;2087208;28;20258;-69
2022/08/04 07:47:06;;;;;;;3.58;1.60;;;;;;;30.33;35.45;96406.22;2085668;28;20203;-70
2022/08/04 07:48:09;;;;;;;4.63;1.90;;;;;;;30.45;35.09;96400.06;2075381;28;20194;-69
2022/08/04 07:49:11;;;;;;;3.95;1.90;;;;;;;30.18;35.28;96407.16;2075636;28;20194;-69
2022/08/04 07:50:33;;;;;;;5.72;1.90;;;;;;;29.93;35.60;96406.81;2077734;28;20201;-70
2022/08/04 07:51:36;;;;;;;3.95;1.42;;;;;;;30.11;35.59;96406.31;2078792;28;20656;-70
2022/08/04 07:52:38;;;;;;;3.97;1.50;;;;;;;30.07;35.07;96407.75;2077876;28;20222;-69
2022/08/04 07:53:41;;;;;;;4.88;1.85;;;;;;;30.28;35.46;96407.66;2078476;28;20198;-69
2022/08/04 07:54:56;;;;;;;2.65;1.50;;;;;;;30.28;34.80;96407.66;2074391;28;20194;-69
2022/08/04 07:55:59;;;;;;;2.38;1.17;;;;;;;30.18;35.26;96403.66;2075804;28;20262;-69
2022/08/04 07:57:01;;;;;;;2.08;1.20;;;;;;;30.26;35.20;96411.56;2076056;28;20189;-69
2022/08/04 07:58:02;;;;;;;2.10;1.27;;;;;;;30.49;34.95;96405.91;2077232;28;20213;-69
2022/08/04 07:59:05;;;;;;;2.60;1.50;;;;;;;30.61;34.42;96415.09;2077593;28;20190;-69
2022/08/04 08:00:09;;;;;;;2.53;1.23;;;;;;;30.67;34.31;96405.34;2078762;28;20430;-69
2022/08/04 08:01:11;;;;;;;2.47;1.30;;;;;;;30.74;34.75;96410.75;2078758;28;20204;-69
2022/08/04 08:02:14;;;;;;;2.33;1.27;;;;;;;30.19;35.13;96414.22;2078104;28;20431;-69
2022/08/04 08:03:16;;;;;;;3.00;1.37;;;;;;;30.09;34.87;96403.81;2075886;28;20439;-69
2022/08/04 08:04:22;;;;;;;2.60;1.33;;;;;;;30.50;34.33;96412.13;2077745;28;20489;-69
2022/08/04 08:05:24;;;;;;;5.13;1.13;;;;;;;30.65;34.40;96411.97;2078754;28;20918;-69
2022/08/04 08:06:28;;;;;;;2.33;1.20;;;;;;;30.98;34.02;96405.88;2077843;28;20431;-69
2022/08/04 08:07:35;;;;;;;2.27;1.30;;;;;;;30.77;34.35;96399.59;2076535;28;20455;-69
2022/08/04 08:08:50;;;;;;;1.73;1.20;;;;;;;30.94;33.46;96394.66;2078520;28;20439;-69
2022/08/04 08:09:52;;;;;;;2.83;1.47;;;;;;;30.95;33.46;96401.72;2078839;28;20431;-69
2022/08/04 08:10:54;;;;;;;2.00;1.27;;;;;;;31.02;33.46;96391.78;2078648;28;20779;-69
2022/08/04 08:11:56;;;;;;;2.43;1.23;;;;;;;31.20;33.47;96404.69;2077247;28;20448;-68
2022/08/04 08:13:18;;;;;;;2.47;1.20;;;;;;;31.04;34.12;96399.66;2076173;28;20792;-69
2022/08/04 08:14:20;;;;;;;3.00;1.43;;;;;;;30.94;34.03;96400.91;2078240;28;20444;-70
2022/08/04 08:15:22;;;;;;;4.10;1.43;;;;;;;31.21;33.30;96400.13;2078975;28;20483;-69
2022/08/04 08:16:24;;;;;;;2.50;1.60;;;;;;;31.45;33.05;96400.56;2077817;28;20437;-69
2022/08/04 08:17:26;;;;;;;2.50;1.23;;;;;;;31.19;33.29;96397.66;2077490;28;20804;-69
2022/08/04 08:18:28;;;;;;;2.73;1.20;;;;;;;31.41;33.64;96401.00;2078239;28;20429;-69
2022/08/04 08:19:31;;;;;;;1.73;1.13;;;;;;;31.50;33.49;96398.09;2078487;28;20445;-69
2022/08/04 09:06:41;;;;;;;2.23;1.33;;;;;;;32.65;30.32;96395.00;2098178;27;20579;-63
2022/08/04 09:07:43;;;;;;;6.50;1.43;;;;;;;32.33;31.19;96389.50;2099982;28;20967;-63
2022/08/04 09:09:21;;;;;;;3.73;1.37;;;;;;;32.29;30.78;96398.25;2093436;28;20433;-63
2022/08/04 09:10:44;;;;;;;1.60;1.00;;;;;;;33.10;29.67;96401.44;2097404;28;20425;-63
2022/08/04 09:12:22;;;;;;;6.40;1.77;;;;;;;33.66;28.97;96392.53;2097436;28;20436;-64
2022/08/04 09:13:35;;;;;;;4.60;2.30;;;;;;;34.16;29.12;96398.97;2097978;28;20441;-63
2022/08/04 09:15:02;;;;;;;3.20;1.47;;;;;;;34.61;28.64;96393.25;2097980;28;20478;-64
2022/08/04 09:16:16;;;;;;;6.13;1.63;;;;;;;35.15;27.69;96401.53;2095224;28;20973;-64
2022/08/04 09:17:36;;;;;;;2.27;1.23;;;;;;;35.42;26.84;96401.16;2100472;27;20446;-64
2022/08/04 09:18:46;;;;;;;3.07;1.20;;;;;;;35.70;26.78;96407.00;2096459;28;20911;-64
2022/08/04 09:20:05;;;;;;;3.07;1.00;;;;;;;35.77;26.47;96404.97;2097366;28;20777;-64
2022/08/04 09:21:31;;;;;;;1.30;0.93;;;;;;;35.92;26.25;96402.69;2099940;28;20461;-64
2022/08/04 09:22:49;;;;;;;2.10;1.60;;;;;;;36.18;26.32;96402.44;2095430;28;20458;-64
2022/08/04 09:24:03;;;;;;;1.83;1.40;;;;;;;35.67;26.09;96396.59;2096541;28;20421;-64
2022/08/04 09:25:37;;;;;;;3.57;1.50;;;;;;;35.69;25.13;96405.34;2096145;28;20426;-64
2022/08/04 09:27:08;;;;;;;3.23;1.27;;;;;;;35.34;26.42;96397.91;2098044;28;20910;-64
2022/08/04 09:28:24;;;;;;;4.03;1.47;;;;;;;34.85;26.46;96401.53;2086360;28;20948;-64
2022/08/04 09:30:03;;;;;;;2.13;1.10;;;;;;;34.71;26.75;96403.56;2093793;28;20483;-64
2022/08/04 09:31:10;;;;;;;3.67;1.13;;;;;;;35.38;26.31;96399.16;2098117;28;20421;-64
2022/08/04 09:32:34;;;;;;;2.00;1.00;;;;;;;35.41;25.64;96406.81;2099101;27;20425;-64
2022/08/04 09:33:49;;;;;;;5.83;2.37;;;;;;;35.48;25.56;96402.94;2096758;28;20815;-64
2022/08/04 09:35:00;;;;;;;3.03;1.33;;;;;;;34.64;26.97;96398.22;2097321;28;20429;-64
2022/08/04 09:36:25;;;;;;;2.77;1.33;;;;;;;35.30;26.29;96401.09;2093079;28;20431;-64
2022/08/04 09:37:55;;;;;;;2.00;1.37;;;;;;;36.09;25.29;96401.97;2096320;28;20451;-64
2022/08/04 09:39:20;;;;;;;8.43;1.00;;;;;;;36.24;24.86;96396.84;2094964;28;20449;-64
2022/08/04 09:40:42;;;;;;;1.77;1.10;;;;;;;35.69;25.37;96398.00;2094846;28;21473;-64
2022/08/04 09:42:31;;;;;;;3.53;1.47;;;;;;;35.15;25.68;96396.09;2097244;28;20429;-64
2022/08/04 09:43:48;;;;;;;1.87;1.27;;;;;;;33.68;27.13;96390.41;2095684;28;20532;-64
2022/08/04 09:45:26;;;;;;;2.93;1.00;;;;;;;34.61;26.76;96395.16;2096134;28;20422;-63
2022/08/04 09:47:13;;;;;;;3.30;1.20;;;;;;;34.61;26.39;96387.81;2095456;28;20508;-64
2022/08/04 09:48:34;;;;;;;1.40;0.80;;;;;;;34.48;26.69;96390.72;2077221;28;20463;-64
2022/08/04 09:49:42;;;;;;;1.70;1.20;;;;;;;34.21;27.07;96388.28;2098312;28;20796;-64
2022/08/04 09:50:44;;;;;;;2.50;1.00;;;;;;;35.09;25.79;96390.78;2095876;28;20428;-64
2022/08/04 09:51:52;;;;;;;7.17;1.20;;;;;;;34.67;26.15;96399.66;2096931;28;20785;-64
2022/08/04 09:53:38;;;;;;;3.07;1.30;;;;;;;34.12;27.18;96393.16;2094983;28;20526;-64
2022/08/04 09:54:52;;;;;;;2.60;1.60;;;;;;;35.22;25.94;96387.03;2089871;28;20445;-64
2022/08/04 09:56:13;;;;;;;2.60;1.23;;;;;;;35.38;25.56;96393.72;2088998;28;20586;-64
2022/08/04 09:57:36;;;;;;;2.90;1.10;;;;;;;35.48;25.31;96393.97;2087895;28;21166;-65
2022/08/04 09:59:09;;;;;;;2.60;1.10;;;;;;;35.45;25.71;96389.84;2087177;28;20436;-64
2022/08/04 10:00:16;;;;;;;1.73;1.23;;;;;;;35.39;25.78;96390.78;2088230;28;20910;-64
2022/08/04 10:01:23;;;;;;;1.80;1.10;;;;;;;35.56;25.59;96387.38;2088113;28;20430;-64
2022/08/04 10:02:30;;;;;;;2.03;1.30;;;;;;;36.07;25.03;96391.31;2089276;28;20479;-64
2022/08/04 10:03:37;;;;;;;2.13;1.50;;;;;;;35.59;25.42;96392.34;2088983;28;20520;-64
2022/08/04 10:04:41;;;;;;;4.57;1.27;;;;;;;35.69;25.32;96386.34;2089351;28;20513;-64
2022/08/04 10:05:56;;;;;;;1.40;0.90;;;;;;;35.98;24.55;96387.31;2090002;28;20460;-65
2022/08/04 10:07:10;;;;;;;2.93;1.47;;;;;;;36.14;24.82;96391.19;2088306;28;20463;-65
2022/08/04 10:08:39;;;;;;;5.57;1.50;;;;;;;36.43;24.34;96386.69;2086736;28;20436;-65
2022/08/04 10:09:43;;;;;;;1.73;1.30;;;;;;;35.71;25.50;96385.03;2088854;28;20434;-65
2022/08/04 10:10:51;;;;;;;1.40;0.90;;;;;;;35.62;25.29;96381.84;2088080;28;20785;-64
2022/08/04 10:12:00;;;;;;;4.30;1.20;;;;;;;35.95;25.58;96385.91;2088719;28;20437;-65
2022/08/04 10:13:35;;;;;;;1.50;0.90;;;;;;;36.48;25.08;96379.69;2089707;28;20485;-65
2022/08/04 10:15:09;;;;;;;1.30;0.90;;;;;;;37.32;23.77;96384.59;2085853;28;20488;-65
2022/08/04 10:16:57;;;;;;;1.60;1.20;;;;;;;37.20;24.48;96383.81;2086881;28;20504;-65
2022/08/04 10:18:15;;;;;;;1.60;1.10;;;;;;;37.25;25.10;96376.56;2066271;28;20479;-65
2022/08/04 10:19:33;;;;;;;4.57;1.37;;;;;;;37.95;24.29;96378.28;2073642;28;20433;-65
2022/08/04 10:20:55;;;;;;;4.43;1.37;;;;;;;38.40;24.32;96382.75;2085268;28;20448;-65
2022/08/04 10:22:17;;;;;;;1.10;0.93;;;;;;;38.35;23.89;96380.75;2078814;28;20445;-65
2022/08/04 10:23:37;;;;;;;3.10;1.37;;;;;;;37.89;24.25;96378.19;2084041;28;20462;-65
2022/08/04 10:25:14;;;;;;;4.07;1.20;;;;;;;37.45;24.38;96371.75;2082626;28;20426;-65
2022/08/04 10:26:47;;;;;;;2.30;1.40;;;;;;;37.00;25.59;96376.97;2082134;28;20473;-65
2022/08/04 10:27:56;;;;;;;3.63;1.63;;;;;;;36.86;25.27;96372.88;2083055;28;21035;-65
2022/08/04 10:29:17;;;;;;;2.83;1.10;;;;;;;36.67;25.19;96377.63;2081562;28;20427;-65
2022/08/04 10:30:19;;;;;;;1.60;1.10;;;;;;;36.17;25.63;96377.13;2092486;28;20569;-65
2022/08/04 10:31:55;;;;;;;2.77;1.30;;;;;;;35.63;26.19;96372.63;2091747;28;20436;-65
2022/08/04 10:33:06;;;;;;;1.40;1.20;;;;;;;35.71;26.06;96376.06;2090394;28;20437;-65
2022/08/04 10:34:16;;;;;;;7.70;1.23;;;;;;;35.61;26.84;96379.38;2092144;28;20458;-66
2022/08/04 10:35:23;;;;;;;9.37;1.23;;;;;;;35.74;26.68;96372.88;2090585;28;20777;-65
2022/08/04 10:36:30;;;;;;;3.77;1.33;;;;;;;35.52;26.80;96368.03;2092182;28;20780;-65
2022/08/04 10:37:47;;;;;;;4.60;1.10;;;;;;;35.18;26.94;96377.72;2089744;28;21606;-65
2022/08/04 10:39:11;;;;;;;1.80;1.23;;;;;;;35.18;27.08;96377.72;2092827;28;20549;-71
2022/08/04 10:40:47;;;;;;;4.90;2.83;;;;;;;35.17;27.14;96381.50;2094675;28;20434;-70
2022/08/04 10:42:07;;;;;;;23.47;17.77;;;;;;;35.90;26.32;96374.91;2089776;28;20428;-70
2022/08/04 10:43:21;;;;;;;51.53;32.43;;;;;;;36.33;26.38;96367.44;2093999;28;20777;-71
2022/08/04 10:44:32;;;;;;;4.50;3.00;;;;;;;36.90;25.70;96374.88;2096255;28;20498;-70
2022/08/04 10:45:51;;;;;;;4.13;1.27;;;;;;;37.10;25.00;96376.28;2091209;28;20477;-70
2022/08/04 10:47:06;;;;;;;2.10;0.93;;;;;;;37.38;24.28;96378.19;2091354;28;20465;-70
2022/08/04 10:48:21;;;;;;;2.03;1.20;;;;;;;37.62;24.57;96369.84;2089819;28;20427;-70
2022/08/04 10:49:44;;;;;;;2.43;1.10;;;;;;;38.32;24.00;96375.00;2092465;28;20436;-70
2022/08/04 10:51:02;;;;;;;3.40;1.13;;;;;;;38.21;23.75;96374.81;2094508;28;20422;-70
2022/08/04 10:52:10;;;;;;;1.40;1.00;;;;;;;37.92;24.02;96373.31;2088822;28;20917;-70
2022/08/04 10:53:18;;;;;;;6.83;1.60;;;;;;;38.23;23.66;96377.28;2090759;28;20430;-70
2022/08/04 10:54:25;;;;;;;5.60;1.03;;;;;;;38.51;23.13;96368.16;2092603;28;20426;-70
2022/08/04 10:55:37;;;;;;;2.23;1.10;;;;;;;38.54;23.22;96372.28;2089589;28;20436;-70
2022/08/04 10:57:05;;;;;;;4.30;1.30;;;;;;;38.05;23.41;96375.69;2087231;28;20929;-69
2022/08/04 10:58:14;;;;;;;2.07;1.30;;;;;;;36.44;24.36;96372.03;2092495;28;20429;-71
2022/08/04 10:59:32;;;;;;;1.90;1.53;;;;;;;35.50;25.59;96370.13;2091353;28;20453;-70
2022/08/04 11:00:37;;;;;;;2.80;1.00;;;;;;;35.67;26.09;96369.44;2090996;28;20802;-70
2022/08/04 11:01:43;;;;;;;2.80;1.13;;;;;;;36.24;25.74;96375.13;2091465;28;20430;-70
2022/08/04 11:03:07;;;;;;;1.50;0.83;;;;;;;37.26;23.63;96370.06;2090097;28;20551;-70
2022/08/04 11:04:40;;;;;;;5.67;2.07;;;;;;;37.84;23.95;96380.84;2092832;28;20428;-70
2022/08/04 11:05:51;;;;;;;1.63;1.23;;;;;;;37.82;23.46;96379.44;2091054;28;20469;-70
2022/08/04 11:06:54;;;;;;;2.07;1.60;;;;;;;38.05;23.88;96378.41;2089726;28;20465;-70
2022/08/04 11:08:04;;;;;;;1.80;1.30;;;;;;;38.29;23.31;96370.06;2089885;28;20442;-70
2022/08/04 11:09:15;;;;;;;1.67;1.30;;;;;;;38.84;22.98;96373.72;2091415;28;20437;-70
2022/08/04 11:10:21;;;;;;;4.20;1.10;;;;;;;39.68;22.36;96377.00;2094271;28;20430;-70
2022/08/04 11:11:43;;;;;;;2.10;1.17;;;;;;;39.16;22.39;96375.69;2092689;28;20429;-70
2022/08/04 11:13:08;;;;;;;2.43;1.83;;;;;;;39.87;21.91;96376.59;2090526;28;20450;-70
2022/08/04 11:14:38;;;;;;;2.23;1.47;;;;;;;39.87;21.82;96373.84;2090748;28;20461;-71
2022/08/04 11:15:51;;;;;;;1.20;1.10;;;;;;;40.10;21.76;96370.75;2090084;28;20430;-71
2022/08/04 11:17:19;;;;;;;1.90;1.30;;;;;;;39.74;21.98;96377.88;2092694;28;20781;-71
2022/08/04 11:18:30;;;;;;;3.97;1.20;;;;;;;39.80;21.71;96369.44;2088236;28;20839;-71
2022/08/04 11:20:08;;;;;;;1.30;1.07;;;;;;;40.06;21.60;96368.78;2087346;28;20448;-70
2022/08/04 11:21:41;;;;;;;1.33;0.90;;;;;;;40.54;20.87;96366.06;2088741;28;20411;-70
2022/08/04 11:23:04;;;;;;;1.20;1.00;;;;;;;40.37;21.19;96364.34;2094475;28;20465;-71
2022/08/04 11:24:21;;;;;;;2.00;1.20;;;;;;;40.42;21.38;96367.09;2093966;28;20774;-70
2022/08/04 11:25:34;;;;;;;2.43;1.20;;;;;;;40.72;21.04;96367.50;2086875;28;20435;-70
2022/08/04 11:26:59;;;;;;;3.37;1.47;;;;;;;41.09;20.73;96371.97;2089941;28;20457;-70
2022/08/04 11:28:17;;;;;;;10.70;1.60;;;;;;;41.34;20.23;96367.63;2092492;28;20449;-70
2022/08/04 11:29:44;;;;;;;15.00;6.90;;;;;;;41.18;20.23;96375.84;2091753;28;21019;-69
2022/08/04 11:31:08;;;;;;;7.37;5.33;;;;;;;39.08;22.25;96368.78;2091667;28;20430;-69
2022/08/04 11:32:20;;;;;;;12.97;7.07;;;;;;;40.33;21.30;96369.50;2084505;28;20463;-69
2022/08/04 11:33:35;;;;;;;2.60;1.73;;;;;;;40.42;20.97;96374.44;2093500;28;20435;-69
2022/08/04 11:34:43;;;;;;;2.90;1.37;;;;;;;40.12;20.97;96365.03;2094852;28;20470;-70
2022/08/04 11:36:12;;;;;;;7.83;1.60;;;;;;;40.67;20.83;96367.47;2095165;28;20438;-70
2022/08/04 11:37:23;;;;;;;3.10;1.90;;;;;;;40.36;20.97;96367.34;2090033;28;21127;-70
2022/08/04 11:38:31;;;;;;;2.07;1.37;;;;;;;40.86;20.47;96371.34;2091301;28;20426;-70
2022/08/04 11:39:44;;;;;;;3.27;1.20;;;;;;;39.87;21.02;96371.94;2087914;28;20434;-70
2022/08/04 11:40:50;;;;;;;4.73;1.33;;;;;;;39.40;21.64;96376.19;2092638;28;20827;-70
2022/08/04 11:42:19;;;;;;;3.00;1.60;;;;;;;37.15;23.84;96359.25;2090019;28;20442;-70
2022/08/04 11:43:38;;;;;;;3.23;1.50;;;;;;;37.71;23.48;96365.66;2092880;28;20425;-70
2022/08/04 11:45:05;;;;;;;7.77;2.03;;;;;;;38.81;22.78;96366.06;2090621;28;20438;-70
2022/08/04 11:46:11;;;;;;;1.70;1.13;;;;;;;39.24;22.39;96374.41;2089566;28;20431;-70
2022/08/04 11:47:39;;;;;;;2.03;1.53;;;;;;;39.56;21.83;96365.44;2091477;28;20457;-70
2022/08/04 11:48:51;;;;;;;3.60;1.63;;;;;;;39.06;21.95;96360.06;2091290;28;20443;-70
2022/08/04 11:50:07;;;;;;;4.13;1.63;;;;;;;37.89;23.00;96361.84;2092269;28;20433;-70
2022/08/04 11:51:10;;;;;;;5.43;1.40;;;;;;;37.20;24.30;96364.78;2089924;28;20758;-70
2022/08/04 11:52:15;;;;;;;2.30;1.30;;;;;;;37.17;23.79;96360.66;2089579;28;20517;-70
2022/08/04 11:53:22;;;;;;;1.80;1.07;;;;;;;37.01;24.15;96362.25;2093371;28;20478;-70
2022/08/04 11:54:24;;;;;;;3.80;0.90;;;;;;;37.00;23.98;96360.63;2092826;28;20441;-70
2022/08/04 11:55:26;;;;;;;7.13;1.60;;;;;;;36.80;24.71;96360.19;2095268;28;20421;-71
2022/08/04 11:56:30;;;;;;;1.40;1.20;;;;;;;36.43;24.86;96358.66;2094574;28;20429;-73
2022/08/04 11:57:38;;;;;;;5.27;1.30;;;;;;;36.82;24.38;96355.34;2096196;28;20462;-70
2022/08/04 11:58:40;;;;;;;2.73;1.40;;;;;;;36.85;24.50;96361.16;2095657;28;20425;-71
2022/08/04 11:59:54;;;;;;;22.13;2.40;;;;;;;37.11;24.23;96353.47;2093146;28;20438;-71
2022/08/04 12:01:24;;;;;;;1.50;1.13;;;;;;;37.24;24.12;96353.16;2094184;28;20433;-70
2022/08/04 12:02:49;;;;;;;2.70;1.37;;;;;;;37.57;23.97;96357.00;2089330;28;20451;-70
2022/08/04 12:04:40;;;;;;;2.10;1.20;;;;;;;38.50;22.77;96352.03;2093084;28;20434;-70
2022/08/04 12:06:09;;;;;;;1.60;1.00;;;;;;;39.17;21.94;96359.06;2076919;28;20479;-70
2022/08/04 12:07:19;;;;;;;1.67;1.33;;;;;;;39.72;21.37;96360.91;2076189;28;21014;-70
2022/08/04 12:09:08;;;;;;;1.77;1.57;;;;;;;40.34;21.13;96356.66;2091866;28;20432;-70
2022/08/04 12:10:29;;;;;;;7.03;1.57;;;;;;;39.36;21.42;96358.69;2093101;28;20418;-70
2022/08/04 12:12:01;;;;;;;1.97;1.13;;;;;;;36.53;24.58;96355.34;2091543;28;20429;-69
2022/08/04 12:13:30;;;;;;;2.00;1.33;;;;;;;37.89;23.59;96356.41;2092048;28;20446;-70
2022/08/04 12:14:50;;;;;;;3.80;1.30;;;;;;;38.42;23.37;96358.75;2092693;28;20823;-70
2022/08/04 12:16:15;;;;;;;1.30;0.90;;;;;;;38.60;22.02;96357.59;2092657;28;20433;-70
2022/08/04 12:17:43;;;;;;;5.17;1.50;;;;;;;38.53;22.79;96355.06;2087368;28;20462;-69
2022/08/04 12:18:57;;;;;;;2.07;1.30;;;;;;;39.35;21.68;96351.59;2092714;28;20437;-70
2022/08/04 12:20:03;;;;;;;1.50;1.10;;;;;;;39.00;21.78;96359.16;2094064;28;20908;-70
2022/08/04 12:21:43;;;;;;;1.30;1.00;;;;;;;39.71;21.78;96351.91;2093370;28;20425;-70
2022/08/04 12:22:56;;;;;;;1.70;1.40;;;;;;;40.53;21.00;96350.72;2090989;28;20450;-70
2022/08/04 12:24:07;;;;;;;2.00;1.20;;;;;;;41.21;20.66;96342.44;2088044;28;20430;-69
2022/08/04 12:25:13;;;;;;;2.90;1.20;;;;;;;41.24;20.59;96355.56;2091778;28;20876;-70
2022/08/04 12:26:27;;;;;;;12.40;9.50;;;;;;;41.55;19.85;96350.13;2093028;28;20425;-69
2022/08/04 12:27:32;;;;;;;9.07;5.53;;;;;;;41.49;19.94;96358.63;2089719;28;20469;-69
2022/08/04 12:28:37;;;;;;;18.10;13.53;;;;;;;41.55;19.78;96357.50;2092356;28;20430;-70
2022/08/04 12:30:00;;;;;;;1.90;1.70;;;;;;;41.87;19.77;96350.94;2090917;28;20823;-70
2022/08/04 12:31:29;;;;;;;4.37;1.20;;;;;;;42.19;19.45;96355.25;2086010;28;20440;-70
2022/08/04 12:32:42;;;;;;;2.60;1.47;;;;;;;40.27;20.92;96345.16;2090630;28;20458;-71
2022/08/04 12:33:54;;;;;;;7.37;0.90;;;;;;;38.64;22.34;96350.59;2086932;28;20479;-69
2022/08/04 12:35:24;;;;;;;1.40;1.07;;;;;;;40.16;21.11;96338.78;2090608;28;20606;-70
2022/08/04 12:36:33;;;;;;;1.50;1.27;;;;;;;41.24;20.42;96336.41;2090582;28;20904;-70
2022/08/04 12:38:03;;;;;;;3.30;1.30;;;;;;;41.85;20.00;96348.47;2092524;28;20818;-69
2022/08/04 12:39:21;;;;;;;2.13;1.23;;;;;;;41.40;19.54;96339.97;2091012;28;20905;-70
2022/08/04 12:40:26;;;;;;;1.47;1.37;;;;;;;39.12;21.71;96336.34;2091456;28;20517;-70
2022/08/04 12:41:59;;;;;;;1.30;1.20;;;;;;;40.26;21.24;96335.28;2091557;28;20433;-70
2022/08/04 12:43:28;;;;;;;2.43;1.00;;;;;;;40.16;20.75;96297.78;2091630;28;20434;-70
2022/08/04 12:44:36;;;;;;;1.77;1.20;;;;;;;40.42;21.03;96328.81;2091915;28;20924;-71
2022/08/04 12:45:45;;;;;;;1.10;1.00;;;;;;;40.40;20.90;96333.69;2085228;28;20457;-71
2022/08/04 12:46:49;;;;;;;7.33;1.37;;;;;;;40.10;21.32;96335.22;2090560;28;20786;-71
2022/08/04 12:47:55;;;;;;;2.80;1.37;;;;;;;40.47;21.10;96341.69;2090440;28;20515;-70
2022/08/04 12:49:02;;;;;;;1.83;1.33;;;;;;;39.95;21.33;96337.84;2090267;28;20430;-69
2022/08/04 12:50:06;;;;;;;1.73;1.37;;;;;;;39.76;21.83;96342.91;2091682;28;20437;-71
2022/08/04 12:51:09;;;;;;;1.53;1.10;;;;;;;40.62;20.86;96338.19;2091648;28;20904;-71
2022/08/04 12:52:39;;;;;;;3.90;1.00;;;;;;;40.81;20.59;96335.78;2085503;28;20493;-71
2022/08/04 12:54:02;;;;;;;1.40;1.20;;;;;;;41.02;20.16;96333.94;2088114;28;20446;-70
2022/08/04 12:55:04;;;;;;;2.83;1.03;;;;;;;41.59;19.66;96336.72;2091292;28;20425;-71
2022/08/04 12:56:11;;;;;;;1.50;1.20;;;;;;;41.29;19.61;96332.84;2091653;28;20425;-71
2022/08/04 12:57:16;;;;;;;2.70;0.93;;;;;;;40.85;20.42;96336.06;2091406;28;20422;-70
2022/08/04 12:58:22;;;;;;;9.03;1.30;;;;;;;40.75;20.42;96336.84;2089872;28;20432;-71
2022/08/04 12:59:45;;;;;;;1.70;1.10;;;;;;;41.74;19.63;96341.31;2089255;28;20458;-71
2022/08/04 13:01:13;;;;;;;1.90;1.30;;;;;;;42.07;19.07;96341.84;2091814;28;20933;-70
2022/08/04 13:02:45;;;;;;;5.30;2.20;;;;;;;42.04;19.22;96339.66;2087332;28;20536;-70
2022/08/04 13:03:55;;;;;;;2.83;1.03;;;;;;;42.02;19.56;96342.69;2090726;28;20504;-71
2022/08/04 13:05:04;;;;;;;2.10;1.17;;;;;;;41.90;19.25;96345.72;2091333;28;20433;-71
2022/08/04 13:06:09;;;;;;;1.60;1.10;;;;;;;42.33;19.46;96341.78;2092101;28;20465;-70
2022/08/04 13:07:18;;;;;;;2.20;1.37;;;;;;;42.95;19.15;96347.00;2090999;28;20432;-70
2022/08/04 13:08:21;;;;;;;1.87;1.13;;;;;;;42.97;19.00;96350.25;2090262;28;20433;-71
2022/08/04 13:09:33;;;;;;;2.00;1.30;;;;;;;42.68;18.79;96339.97;2091380;28;20908;-70
2022/08/04 13:10:44;;;;;;;20.67;1.77;;;;;;;42.71;18.63;96340.25;2090072;28;20421;-71
2022/08/04 13:11:51;;;;;;;1.40;1.10;;;;;;;42.99;18.63;96335.16;2089648;28;20472;-71
2022/08/04 13:12:58;;;;;;;3.33;1.27;;;;;;;43.31;18.34;96344.00;2091700;28;20448;-71
2022/08/04 13:13:59;;;;;;;6.63;1.60;;;;;;;42.77;18.68;96324.59;2088019;28;20832;-71
2022/08/04 13:15:23;;;;;;;6.60;1.27;;;;;;;43.51;18.36;96332.03;2090972;28;20440;-71
2022/08/04 13:16:31;;;;;;;2.40;0.80;;;;;;;42.90;18.10;96334.13;2087327;28;20428;-70
2022/08/04 13:17:52;;;;;;;1.60;1.30;;;;;;;42.19;18.69;96341.53;2091043;28;21037;-71
2022/08/04 13:18:58;;;;;;;8.37;0.83;;;;;;;41.70;19.57;96332.03;2090751;28;20460;-70
2022/08/04 13:20:06;;;;;;;1.10;0.93;;;;;;;41.50;19.55;96328.22;2081526;28;20455;-70
2022/08/04 13:21:16;;;;;;;2.40;1.37;;;;;;;41.26;19.76;96322.47;2090791;28;20424;-71
2022/08/04 13:22:28;;;;;;;1.60;1.10;;;;;;;41.20;20.13;96323.53;2088044;28;20460;-71
2022/08/04 13:23:30;;;;;;;2.27;0.90;;;;;;;41.69;19.53;96322.16;2089634;28;20422;-71
2022/08/04 13:24:52;;;;;;;1.50;1.00;;;;;;;41.16;19.50;96316.97;2090371;28;20462;-71
2022/08/04 13:26:16;;;;;;;1.83;0.90;;;;;;;40.87;19.92;96306.53;2092341;28;20455;-70
2022/08/04 13:27:45;;;;;;;2.23;1.00;;;;;;;40.67;20.07;96313.56;2091153;28;20523;-70
2022/08/04 13:28:52;;;;;;;2.13;1.10;;;;;;;40.34;20.23;96304.69;2084245;28;20422;-71
2022/08/04 13:29:56;;;;;;;1.77;1.00;;;;;;;40.28;20.57;96316.72;2087177;28;20789;-70
2022/08/04 13:31:07;;;;;;;2.70;1.27;;;;;;;39.70;21.27;96305.75;2087872;28;20780;-70
2022/08/04 13:32:13;;;;;;;1.50;0.90;;;;;;;39.97;20.98;96306.44;2086933;28;20433;-70
2022/08/04 13:33:15;;;;;;;1.20;0.90;;;;;;;40.30;20.92;96300.88;2091372;28;20429;-70
2022/08/04 13:34:18;;;;;;;5.83;1.10;;;;;;;40.25;20.57;96293.44;2092726;28;20418;-71
2022/08/04 13:35:20;;;;;;;1.80;1.13;;;;;;;40.73;20.12;96307.03;2089391;28;20426;-70
2022/08/04 13:36:25;;;;;;;1.27;0.87;;;;;;;40.39;19.85;96304.72;2090080;28;20426;-71
2022/08/04 13:37:33;;;;;;;2.20;1.13;;;;;;;40.44;20.63;96306.66;2089663;28;20457;-70
2022/08/04 13:38:39;;;;;;;2.30;1.40;;;;;;;39.95;20.63;96300.41;2090694;28;20791;-70
2022/08/04 13:39:46;;;;;;;2.17;1.20;;;;;;;39.84;20.93;96302.25;2089897;28;20433;-71
2022/08/04 13:41:00;;;;;;;10.63;2.40;;;;;;;40.05;20.56;96294.19;2089182;28;20436;-70
2022/08/04 13:42:09;;;;;;;1.50;1.20;;;;;;;40.28;20.52;96300.31;2094734;28;20425;-70
2022/08/04 13:43:22;;;;;;;1.50;1.00;;;;;;;40.93;19.78;96305.44;2087060;28;20435;-70
2022/08/04 13:44:48;;;;;;;1.20;0.80;;;;;;;41.34;19.37;96302.72;2089090;28;20488;-70
2022/08/04 13:45:57;;;;;;;1.00;0.80;;;;;;;41.29;19.33;96294.50;2089457;28;20434;-70
2022/08/04 13:47:04;;;;;;;6.03;1.20;;;;;;;41.07;19.67;96297.53;2090433;28;20433;-70
2022/08/04 13:48:09;;;;;;;1.00;0.80;;;;;;;41.19;19.47;96292.59;2090510;28;20461;-70
2022/08/04 13:49:30;;;;;;;3.10;1.23;;;;;;;41.11;19.69;96293.97;2091269;28;20781;-70
2022/08/04 13:50:52;;;;;;;1.40;0.90;;;;;;;40.90;19.53;96292.28;2091770;28;20453;-70
2022/08/04 13:52:02;;;;;;;1.30;1.13;;;;;;;40.76;19.90;96292.81;2090402;28;20443;-70
2022/08/04 13:53:11;;;;;;;3.17;1.07;;;;;;;40.23;20.28;96290.19;2088069;28;20801;-70
2022/08/04 13:54:13;;;;;;;2.10;1.27;;;;;;;40.22;20.49;96274.88;2090224;28;20939;-70
2022/08/04 13:55:25;;;;;;;2.10;1.43;;;;;;;40.12;20.32;96283.03;2090666;28;20421;-70
2022/08/04 13:56:35;;;;;;;1.87;1.13;;;;;;;40.61;19.97;96277.19;2094178;28;20421;-70
2022/08/04 13:57:44;;;;;;;2.53;1.40;;;;;;;41.18;19.78;96280.03;2094811;28;20464;-70
2022/08/04 13:58:48;;;;;;;2.33;1.10;;;;;;;41.09;19.67;96277.00;2090654;28;20430;-70
2022/08/04 13:59:52;;;;;;;1.57;1.03;;;;;;;40.23;20.61;96276.50;2092388;28;20469;-70
2022/08/04 14:00:56;;;;;;;7.67;1.20;;;;;;;40.62;20.15;96286.22;2083778;28;20815;-70